createdAt,value
2023-04-28T00:00:12.037Z,97999.44
2023-04-28T00:02:40.500Z,97986.69
2023-04-28T00:05:11.098Z,97997.66
2023-04-28T00:07:39.568Z,97993.38
2023-04-28T00:10:09.375Z,98001.06
2023-04-28T00:12:37.664Z,97997.59
2023-04-28T00:15:06.966Z,97987.28
2023-04-28T00:17:35.965Z,97980.41
2023-04-28T00:20:04.569Z,97978.56
2023-04-28T00:22:35.273Z,97969.97
2023-04-28T00:25:03.849Z,97979.28
2023-04-28T00:27:31.940Z,97969.84
2023-04-28T00:30:00.205Z,97969.13
2023-04-28T00:32:28.336Z,97960.72
2023-04-28T00:34:58.564Z,97959.72
2023-04-28T00:37:26.691Z,97960.72
2023-04-28T00:39:59.388Z,97957.16
2023-04-28T00:42:27.666Z,97954.53
2023-04-28T00:44:55.688Z,97951.94
2023-04-28T00:47:24.168Z,97939.28
2023-04-28T00:49:53.420Z,97949.63
2023-04-28T00:52:22.028Z,97941.91
2023-04-28T00:54:50.831Z,97946.75
2023-04-28T00:57:20.852Z,97935.63
2023-04-28T00:59:49.115Z,97943.09
2023-04-28T01:02:18.886Z,97925.88
2023-04-28T01:04:48.126Z,97929.28
2023-04-28T01:07:16.413Z,97934.25
2023-04-28T01:09:46.555Z,97920.66
2023-04-28T01:12:14.914Z,97925.63
2023-04-28T01:14:45.362Z,97919.50
2023-04-28T01:17:15.093Z,97904.31
2023-04-28T01:19:43.540Z,97911.84
2023-04-28T01:22:15.559Z,97906.72
2023-04-28T01:24:45.250Z,97899.78
2023-04-28T01:29:55.625Z,97904.91
2023-04-28T01:32:23.816Z,97903.06
2023-04-28T01:34:52.091Z,97897.84
2023-04-28T01:37:20.350Z,97899.56
2023-04-28T01:39:48.624Z,97904.75
2023-04-28T01:42:16.834Z,97901.34
2023-04-28T01:44:44.873Z,97902.81
2023-04-28T01:47:14.892Z,97900.94
2023-04-28T01:49:43.072Z,97874.72
2023-04-28T01:52:11.514Z,97893.16
2023-04-28T01:55:34.664Z,97892.34
2023-04-28T01:58:02.872Z,97891.50
2023-04-28T02:00:31.368Z,97893.09
2023-04-28T02:03:01.126Z,97888.91
2023-04-28T02:05:29.247Z,97877.91
2023-04-28T02:07:57.532Z,97873.91
2023-04-28T02:10:25.700Z,97883.13
2023-04-28T02:12:53.984Z,97890.06
2023-04-28T02:15:22.129Z,97887.72
2023-04-28T02:17:50.397Z,97898.25
2023-04-28T02:20:20.131Z,97889.78
2023-04-28T02:22:48.978Z,97881.31
2023-04-28T02:25:17.099Z,97889.72
2023-04-28T02:27:45.168Z,97880.28
2023-04-28T02:30:13.963Z,97874.25
2023-04-28T02:32:42.480Z,97881.03
2023-04-28T02:35:11.024Z,97869.88
2023-04-28T02:37:40.613Z,97859.44
2023-04-28T02:40:10.150Z,97848.94
2023-04-28T02:42:38.428Z,97856.44
2023-04-28T02:45:08.359Z,97858.97
2023-04-28T02:47:36.967Z,97857.13
2023-04-28T02:50:05.271Z,97862.31
2023-04-28T02:52:33.722Z,97851.09
2023-04-28T02:55:04.929Z,97847.63
2023-04-28T02:57:33.369Z,97844.22
2023-04-28T03:00:01.403Z,97848.53
2023-04-28T03:02:29.588Z,97840.88
2023-04-28T03:04:57.975Z,97842.63
2023-04-28T03:07:26.628Z,97831.53
2023-04-28T03:09:55.416Z,97838.03
2023-04-28T03:12:24.880Z,97835.41
2023-04-28T03:14:54.029Z,97836.34
2023-04-28T03:17:22.450Z,97826.84
2023-04-28T03:19:50.799Z,97828.50
2023-04-28T03:22:19.076Z,97824.19
2023-04-28T03:24:47.404Z,97824.09
2023-04-28T03:27:16.603Z,97814.66
2023-04-28T03:29:46.355Z,97803.53
2023-04-28T03:32:14.911Z,97800.91
2023-04-28T03:34:43.339Z,97805.44
2023-04-28T03:37:11.675Z,97807.03
2023-04-28T03:39:39.915Z,97800.00
2023-04-28T03:42:08.690Z,97789.81
2023-04-28T03:44:36.943Z,97794.97
2023-04-28T03:47:06.894Z,97796.59
2023-04-28T03:49:35.446Z,97797.59
2023-04-28T03:52:04.716Z,97792.53
2023-04-28T03:54:33.304Z,97789.03
2023-04-28T03:57:03.391Z,97793.19
2023-04-28T03:59:31.974Z,97781.16
2023-04-28T04:02:01.015Z,97792.31
2023-04-28T04:04:31.197Z,97766.69
2023-04-28T04:07:00.058Z,97767.16
2023-04-28T04:09:29.364Z,97773.28
2023-04-28T04:11:58.873Z,97768.31
2023-04-28T04:14:27.116Z,97778.28
2023-04-28T04:16:56.103Z,97777.34
2023-04-28T04:19:27.102Z,97778.28
2023-04-28T04:21:57.202Z,97774.81
2023-04-28T04:24:26.018Z,97763.66
2023-04-28T04:26:54.859Z,97768.00
2023-04-28T04:29:23.029Z,97776.69
2023-04-28T04:31:51.546Z,97780.13
2023-04-28T04:34:19.640Z,97778.53
2023-04-28T04:36:48.073Z,97780.88
2023-04-28T04:39:18.309Z,97780.00
2023-04-28T04:41:46.555Z,97773.94
2023-04-28T04:44:15.467Z,97773.91
2023-04-28T04:46:44.088Z,97778.84
2023-04-28T04:49:12.917Z,97769.25
2023-04-28T04:51:41.351Z,97771.09
2023-04-28T04:54:09.828Z,97768.03
2023-04-28T04:56:39.749Z,97778.59
2023-04-28T04:59:08.190Z,97782.66
2023-04-28T05:01:36.644Z,97785.38
2023-04-28T05:04:05.323Z,97782.19
2023-04-28T05:06:35.041Z,97787.25
2023-04-28T05:09:03.209Z,97788.25
2023-04-28T05:11:31.538Z,97792.53
2023-04-28T05:14:02.076Z,97784.69
2023-04-28T05:16:30.588Z,97783.78
2023-04-28T05:18:59.150Z,97788.69
2023-04-28T05:21:27.735Z,97792.03
2023-04-28T05:23:57.900Z,97792.59
2023-04-28T05:26:26.378Z,97784.56
2023-04-28T05:28:55.080Z,97781.16
2023-04-28T05:31:25.654Z,97790.16
2023-04-28T05:33:54.057Z,97785.94
2023-04-28T05:36:22.585Z,97795.19
2023-04-28T05:38:51.101Z,97789.06
2023-04-28T05:41:19.761Z,97795.13
2023-04-28T05:43:51.859Z,97803.66
2023-04-28T05:46:30.211Z,97795.19
2023-04-28T05:49:01.594Z,97786.59
2023-04-28T05:51:29.964Z,97792.59
2023-04-28T05:53:58.921Z,97799.34
2023-04-28T05:56:29.566Z,97794.97
2023-04-28T05:58:58.799Z,97796.53
2023-04-28T06:01:27.157Z,97793.38
2023-04-28T06:03:58.217Z,97787.72
2023-04-28T06:06:29.871Z,97779.44
2023-04-28T06:08:58.269Z,97782.00
2023-04-28T06:11:27.409Z,97786.03
2023-04-28T06:13:55.924Z,97785.16
2023-04-28T06:16:24.647Z,97786.75
2023-04-28T06:18:53.514Z,97787.63
2023-04-28T06:21:22.976Z,97791.53
2023-04-28T06:23:53.250Z,97793.44
2023-04-28T06:26:21.796Z,97778.66
2023-04-28T06:28:50.064Z,97786.59
2023-04-28T06:31:18.850Z,97804.47
2023-04-28T06:33:47.132Z,97796.91
2023-04-28T06:36:17.909Z,97778.19
2023-04-28T06:38:47.062Z,97789.84
2023-04-28T06:41:16.591Z,97788.91
2023-04-28T06:43:45.608Z,97783.94
2023-04-28T06:46:14.138Z,97785.63
2023-04-28T06:48:42.400Z,97771.16
2023-04-28T06:51:11.934Z,97776.69
2023-04-28T06:53:40.574Z,97764.06
2023-04-28T06:56:11.371Z,97777.59
2023-04-28T06:58:41.632Z,97771.56
2023-04-28T07:01:10.009Z,97770.69
2023-04-28T07:03:39.514Z,97770.88
2023-04-28T07:06:08.580Z,97768.25
2023-04-28T07:08:37.413Z,97768.13
2023-04-28T07:11:07.101Z,97773.22
2023-04-28T07:13:35.608Z,97774.03
2023-04-28T07:16:06.140Z,97776.03
2023-04-28T07:18:35.377Z,97775.53
2023-04-28T07:21:05.499Z,97787.50
2023-04-28T07:23:34.473Z,97792.84
2023-04-28T07:26:02.782Z,97766.50
2023-04-28T07:28:32.283Z,97778.97
2023-04-28T07:31:00.955Z,97798.44
2023-04-28T07:33:31.657Z,97807.78
2023-04-28T07:35:59.724Z,97813.75
2023-04-28T07:38:28.205Z,97825.25
2023-04-28T07:40:56.604Z,97817.97
2023-04-28T07:43:25.560Z,97810.50
2023-04-28T07:45:55.681Z,97811.53
2023-04-28T07:48:24.800Z,97815.03
2023-04-28T07:50:55.207Z,97809.09
2023-04-28T07:53:23.527Z,97817.47
2023-04-28T07:55:52.010Z,97823.56
2023-04-28T07:58:20.958Z,97826.41
2023-04-28T08:00:49.300Z,97829.81
2023-04-28T08:03:17.826Z,97833.22
2023-04-28T08:05:46.618Z,97839.13
2023-04-28T08:08:16.693Z,97840.72
2023-04-28T08:10:45.481Z,97827.81
2023-04-28T08:13:14.593Z,97822.63
2023-04-28T08:15:43.420Z,97819.00
2023-04-28T08:18:12.030Z,97818.91
2023-04-28T08:20:40.685Z,97814.00
2023-04-28T08:23:09.258Z,97814.59
2023-04-28T08:25:39.586Z,97809.09
2023-04-28T08:28:09.154Z,97799.75
2023-04-28T08:30:39.141Z,97802.28
2023-04-28T08:33:08.568Z,97803.28
2023-04-28T08:35:38.099Z,97790.34
2023-04-28T08:38:07.474Z,97784.34
2023-04-28T08:40:36.889Z,97777.44
2023-04-28T08:43:07.421Z,97786.66
2023-04-28T08:45:43.886Z,97778.72
2023-04-28T08:48:20.603Z,97774.19
2023-04-28T08:50:52.298Z,97771.66
2023-04-28T08:53:27.174Z,97768.22
2023-04-28T08:55:58.185Z,97763.16
2023-04-28T08:58:29.650Z,97764.84
2023-04-28T09:00:58.977Z,97768.97
2023-04-28T09:03:28.952Z,97775.94
2023-04-28T09:05:58.070Z,97769.19
2023-04-28T09:08:26.449Z,97772.97
2023-04-28T09:11:08.926Z,97788.59
2023-04-28T09:13:38.944Z,97785.28
2023-04-28T09:16:08.569Z,97776.63
2023-04-28T09:18:36.948Z,97778.88
2023-04-28T09:21:06.340Z,97760.25
2023-04-28T09:23:35.779Z,97767.75
2023-04-28T09:26:05.666Z,97772.22
2023-04-28T09:28:36.072Z,97768.75
2023-04-28T09:31:06.631Z,97776.53
2023-04-28T09:33:35.919Z,97785.84
2023-04-28T09:36:04.771Z,97787.47
2023-04-28T09:38:45.044Z,97784.16
2023-04-28T09:41:14.126Z,97791.78
2023-04-28T09:43:42.612Z,97797.09
2023-04-28T09:46:13.132Z,97790.19
2023-04-28T09:48:42.323Z,97790.09
2023-04-28T09:51:14.433Z,97786.38
2023-04-28T09:53:45.462Z,97774.03
2023-04-28T09:56:14.607Z,97761.28
2023-04-28T09:58:47.299Z,97775.47
2023-04-28T10:01:17.525Z,97776.63
2023-04-28T10:04:01.761Z,97777.38
2023-04-28T10:06:31.398Z,97774.34
2023-04-28T10:09:00.943Z,97768.84
2023-04-28T10:11:31.004Z,97750.56
2023-04-28T10:13:59.906Z,97758.28
2023-04-28T10:16:33.268Z,97769.53
2023-04-28T10:19:04.960Z,97749.94
2023-04-28T10:21:36.977Z,97748.19
2023-04-28T10:24:16.417Z,97734.03
2023-04-28T10:27:07.296Z,97720.63
2023-04-28T10:29:36.770Z,97716.38
2023-04-28T10:32:34.754Z,97726.72
2023-04-28T10:35:37.642Z,97735.41
2023-04-28T10:38:08.596Z,97717.78
2023-04-28T10:40:39.075Z,97707.25
2023-04-28T10:43:08.659Z,97717.00
2023-04-28T10:46:07.028Z,97716.63
2023-04-28T10:49:10.496Z,97725.78
2023-04-28T10:51:39.446Z,97734.13
2023-04-28T10:54:21.723Z,97734.66
2023-04-28T10:57:21.674Z,97729.34
2023-04-28T10:59:53.200Z,97722.91
2023-04-28T11:02:44.701Z,97730.19
2023-04-28T11:05:19.541Z,97717.41
2023-04-28T11:08:31.501Z,97715.44
2023-04-28T11:11:17.491Z,97716.16
2023-04-28T11:13:48.605Z,97717.97
2023-04-28T11:16:19.574Z,97702.28
2023-04-28T11:18:55.667Z,97724.56
2023-04-28T11:21:29.523Z,97714.19
2023-04-28T11:23:59.562Z,97710.22
2023-04-28T11:26:29.905Z,97711.78
2023-04-28T11:29:00.290Z,97712.44
2023-04-28T11:31:29.835Z,97708.47
2023-04-28T11:34:05.702Z,97717.69
2023-04-28T11:36:37.842Z,97720.09
2023-04-28T11:39:08.177Z,97722.56
2023-04-28T11:41:37.855Z,97718.88
2023-04-28T11:44:14.396Z,97712.09
2023-04-28T11:46:51.795Z,97717.09
2023-04-28T11:49:21.340Z,97716.50
2023-04-28T11:51:53.081Z,97715.84
2023-04-28T11:54:27.290Z,97715.41
2023-04-28T11:56:57.836Z,97721.22
2023-04-28T11:59:28.788Z,97701.81
2023-04-28T12:01:59.682Z,97690.78
2023-04-28T12:04:30.910Z,97699.91
2023-04-28T12:07:06.334Z,97674.72
2023-04-28T12:09:37.145Z,97692.13
2023-04-28T12:12:07.262Z,97688.22
2023-04-28T12:14:56.577Z,97682.00
2023-04-28T12:17:26.835Z,97686.22
2023-04-28T12:19:56.210Z,97698.84
2023-04-28T12:22:28.083Z,97703.06
2023-04-28T12:25:08.462Z,97699.59
2023-04-28T12:27:40.715Z,97697.41
2023-04-28T12:30:28.759Z,97699.28
2023-04-28T12:33:00.249Z,97692.75
2023-04-28T12:35:31.720Z,97679.81
2023-04-28T12:38:01.868Z,97694.00
2023-04-28T12:40:30.664Z,97689.03
2023-04-28T12:42:59.304Z,97663.84
2023-04-28T12:45:28.102Z,97691.91
2023-04-28T12:47:57.217Z,97688.31
2023-04-28T12:50:27.696Z,97682.63
2023-04-28T12:52:57.991Z,97691.44
2023-04-28T12:55:29.032Z,97677.91
2023-04-28T12:57:57.909Z,97680.59
2023-04-28T13:00:26.769Z,97686.28
2023-04-28T13:02:59.148Z,97699.78
2023-04-28T13:05:28.096Z,97697.72
2023-04-28T13:07:57.482Z,97692.56
2023-04-28T13:10:26.843Z,97683.31
2023-04-28T13:12:57.012Z,97683.56
2023-04-28T13:15:26.213Z,97670.28
2023-04-28T13:17:57.220Z,97667.16
2023-04-28T13:20:26.177Z,97660.91
2023-04-28T13:22:55.077Z,97659.94
2023-04-28T13:25:24.190Z,97664.44
2023-04-28T13:27:53.070Z,97670.44
2023-04-28T13:30:23.718Z,97673.28
2023-04-28T13:32:54.487Z,97677.53
2023-04-28T13:35:26.772Z,97676.84
2023-04-28T13:38:02.739Z,97676.75
2023-04-28T13:40:31.729Z,97654.63
2023-04-28T13:43:00.678Z,97665.19
2023-04-28T13:45:31.803Z,97647.25
2023-04-28T13:48:01.502Z,97652.44
2023-04-28T13:50:30.204Z,97659.72
2023-04-28T13:53:00.260Z,97658.56
2023-04-28T13:55:29.128Z,97655.72
2023-04-28T13:58:01.802Z,97650.31
2023-04-28T14:00:32.821Z,97628.69
2023-04-28T14:03:02.408Z,97662.38
2023-04-28T14:05:36.099Z,97646.72
2023-04-28T14:08:11.620Z,97647.75
2023-04-28T14:10:40.356Z,97644.75
2023-04-28T14:13:10.021Z,97627.75
2023-04-28T14:15:51.242Z,97618.06
2023-04-28T14:18:26.925Z,97638.66
2023-04-28T14:20:56.088Z,97619.97
2023-04-28T14:23:25.304Z,97623.75
2023-04-28T14:25:56.465Z,97626.59
2023-04-28T14:28:24.922Z,97611.53
2023-04-28T14:30:57.292Z,97629.59
2023-04-28T14:33:26.172Z,97626.59
2023-04-28T14:35:55.908Z,97638.47
2023-04-28T14:38:24.747Z,97615.06
2023-04-28T14:40:53.950Z,97630.47
2023-04-28T14:43:22.762Z,97621.09
2023-04-28T14:45:51.941Z,97626.00
2023-04-28T14:48:22.563Z,97621.75
2023-04-28T14:50:51.991Z,97618.97
2023-04-28T14:53:20.273Z,97593.66
2023-04-28T14:55:49.248Z,97586.69
2023-04-28T14:58:18.438Z,97614.72
2023-04-28T15:00:47.876Z,97606.19
2023-04-28T15:03:17.012Z,97598.31
2023-04-28T15:05:46.948Z,97603.16
2023-04-28T15:08:15.867Z,97592.16
2023-04-28T15:10:44.328Z,97595.47
2023-04-28T15:13:13.350Z,97603.00
2023-04-28T15:15:42.217Z,97601.56
2023-04-28T15:18:11.387Z,97590.28
2023-04-28T15:20:42.439Z,97612.22
2023-04-28T15:23:12.909Z,97606.03
2023-04-28T15:25:41.759Z,97609.63
2023-04-28T15:28:10.402Z,97606.50
2023-04-28T15:30:41.390Z,97605.69
2023-04-28T15:33:10.783Z,97613.38
2023-04-28T15:35:40.227Z,97612.22
2023-04-28T15:38:12.911Z,97603.66
2023-04-28T15:40:42.167Z,97606.19
2023-04-28T15:43:10.775Z,97596.00
2023-04-28T15:45:40.967Z,97601.00
2023-04-28T15:48:10.245Z,97614.53
2023-04-28T15:50:38.744Z,97611.09
2023-04-28T15:53:07.483Z,97616.06
2023-04-28T15:55:38.139Z,97611.28
2023-04-28T15:58:09.326Z,97625.94
2023-04-28T16:00:38.112Z,97634.63
2023-04-28T16:03:06.809Z,97624.00
2023-04-28T16:05:35.919Z,97630.91
2023-04-28T16:08:04.604Z,97631.97
2023-04-28T16:10:33.381Z,97633.22
2023-04-28T16:13:05.778Z,97636.41
2023-04-28T16:15:34.652Z,97622.28
2023-04-28T16:18:03.039Z,97621.22
2023-04-28T16:20:31.862Z,97616.69
2023-04-28T16:23:00.215Z,97614.03
2023-04-28T16:25:29.110Z,97624.41
2023-04-28T16:27:57.504Z,97625.59
2023-04-28T16:30:27.771Z,97625.75
2023-04-28T16:32:58.447Z,97621.47
2023-04-28T16:35:27.222Z,97612.88
2023-04-28T16:37:55.439Z,97624.53
2023-04-28T16:40:23.645Z,97607.16
2023-04-28T16:42:52.030Z,97615.59
2023-04-28T16:45:21.135Z,97610.50
2023-04-28T16:47:51.051Z,97610.50
2023-04-28T16:50:19.956Z,97613.69
2023-04-28T16:52:48.433Z,97617.97
2023-04-28T16:55:16.920Z,97606.94
2023-04-28T16:57:45.950Z,97605.47
2023-04-28T17:00:15.385Z,97615.69
2023-04-28T17:02:44.347Z,97620.44
2023-04-28T17:05:14.452Z,97610.22
2023-04-28T17:07:43.097Z,97621.97
2023-04-28T17:10:12.132Z,97615.25
2023-04-28T17:12:45.101Z,97609.09
2023-04-28T17:15:18.382Z,97611.75
2023-04-28T17:17:49.728Z,97604.75
2023-04-28T17:20:20.367Z,97601.28
2023-04-28T17:22:50.454Z,97594.84
2023-04-28T17:25:19.552Z,97599.03
2023-04-28T17:27:48.415Z,97606.81
2023-04-28T17:30:17.656Z,97592.19
2023-04-28T17:32:46.404Z,97598.28
2023-04-28T17:35:15.466Z,97589.28
2023-04-28T17:37:46.028Z,97599.25
2023-04-28T17:40:15.801Z,97585.47
2023-04-28T17:42:45.519Z,97582.00
2023-04-28T17:45:14.136Z,97576.97
2023-04-28T17:47:42.384Z,97580.75
2023-04-28T17:50:12.827Z,97574.19
2023-04-28T17:52:43.885Z,97576.88
2023-04-28T17:55:16.238Z,97583.09
2023-04-28T17:57:45.288Z,97591.97
2023-04-28T18:00:15.295Z,97603.34
2023-04-28T18:02:44.267Z,97600.00
2023-04-28T18:05:12.841Z,97590.72
2023-04-28T18:07:42.712Z,97594.50
2023-04-28T18:10:11.827Z,97595.38
2023-04-28T18:12:42.799Z,97589.59
2023-04-28T18:15:12.982Z,97592.53
2023-04-28T18:17:41.590Z,97604.13
2023-04-28T18:20:12.558Z,97606.22
2023-04-28T18:22:42.778Z,97606.66
2023-04-28T18:25:13.510Z,97612.88
2023-04-28T18:27:43.342Z,97629.47
2023-04-28T18:30:12.334Z,97626.38
2023-04-28T18:32:41.258Z,97620.78
2023-04-28T18:35:10.700Z,97632.06
2023-04-28T18:37:39.377Z,97617.22
2023-04-28T18:40:09.855Z,97633.31
2023-04-28T18:42:38.489Z,97637.56
2023-04-28T18:47:41.403Z,97633.22
2023-04-28T18:50:11.407Z,97635.09
2023-04-28T18:52:40.077Z,97649.00
2023-04-28T18:55:10.040Z,97655.84
2023-04-28T18:57:40.920Z,97647.34
2023-04-28T19:00:12.297Z,97659.59
2023-04-28T19:02:41.361Z,97661.50
2023-04-28T19:05:10.766Z,97668.00
2023-04-28T19:07:39.720Z,97661.53
2023-04-28T19:10:09.035Z,97665.16
2023-04-28T19:12:37.771Z,97669.81
2023-04-28T19:15:07.317Z,97669.28
2023-04-28T19:17:38.822Z,97690.19
2023-04-28T19:20:08.830Z,97676.94
2023-04-28T19:22:39.381Z,97683.84
2023-04-28T19:25:08.590Z,97691.91
2023-04-28T19:27:39.584Z,97693.94
2023-04-28T19:30:10.072Z,97696.19
2023-04-28T19:32:41.083Z,97685.19
2023-04-28T19:35:10.592Z,97694.94
2023-04-28T19:37:38.996Z,97706.19
2023-04-28T19:40:08.852Z,97707.97
2023-04-28T19:42:37.831Z,97707.94
2023-04-28T19:45:07.746Z,97713.63
2023-04-28T19:47:37.252Z,97704.84
2023-04-28T19:50:08.594Z,97707.31
2023-04-28T19:52:38.009Z,97712.38
2023-04-28T19:55:07.066Z,97712.50
2023-04-28T19:57:36.213Z,97702.38
2023-04-28T20:00:04.783Z,97691.34
2023-04-28T20:02:34.282Z,97717.13
2023-04-28T20:05:03.184Z,97725.47
2023-04-28T20:07:33.779Z,97722.59
2023-04-28T20:10:02.536Z,97706.22
2023-04-28T20:12:31.289Z,97725.06
2023-04-28T20:14:59.799Z,97736.44
2023-04-28T20:17:28.485Z,97732.38
2023-04-28T20:19:56.970Z,97737.84
2023-04-28T20:22:25.537Z,97736.19
2023-04-28T20:24:56.472Z,97737.63
2023-04-28T20:27:25.505Z,97731.63
2023-04-28T20:29:55.558Z,97741.47
2023-04-28T20:32:23.747Z,97738.97
2023-04-28T20:34:52.353Z,97725.28
2023-04-28T20:37:21.702Z,97728.88
2023-04-28T20:39:51.984Z,97733.34
2023-04-28T20:42:21.736Z,97728.56
2023-04-28T20:44:51.360Z,97735.41
2023-04-28T20:47:19.891Z,97738.84
2023-04-28T20:49:48.793Z,97740.41
2023-04-28T20:52:18.574Z,97736.91
2023-04-28T20:54:47.323Z,97727.31
2023-04-28T20:57:15.666Z,97739.31
2023-04-28T20:59:45.422Z,97734.16
2023-04-28T21:02:13.870Z,97729.78
2023-04-28T21:04:42.209Z,97732.28
2023-04-28T21:07:10.614Z,97740.53
2023-04-28T21:09:38.890Z,97747.34
2023-04-28T21:12:07.669Z,97738.63
2023-04-28T21:14:37.759Z,97732.69
2023-04-28T21:17:08.524Z,97723.16
2023-04-28T21:19:37.461Z,97718.13
2023-04-28T21:22:05.617Z,97733.53
2023-04-28T21:24:34.362Z,97727.53
2023-04-28T21:27:04.406Z,97724.84
2023-04-28T21:29:34.827Z,97724.50
2023-04-28T21:32:03.361Z,97722.69
2023-04-28T21:34:33.664Z,97716.88
2023-04-28T21:37:02.558Z,97710.81
2023-04-28T21:39:31.239Z,97705.44
2023-04-28T21:42:00.851Z,97712.59
2023-04-28T21:44:29.132Z,97718.03
2023-04-28T21:46:58.431Z,97713.63
2023-04-28T21:49:27.728Z,97723.03
2023-04-28T21:51:57.526Z,97717.00
2023-04-28T21:54:26.146Z,97715.38
2023-04-28T21:56:56.165Z,97710.94
2023-04-28T21:59:25.258Z,97708.59
2023-04-28T22:01:54.315Z,97721.34
2023-04-28T22:04:24.350Z,97719.81
2023-04-28T22:06:53.380Z,97714.53
2023-04-28T22:09:28.011Z,97701.06
2023-04-28T22:11:56.484Z,97711.03
2023-04-28T22:14:39.635Z,97714.53
2023-04-28T22:17:10.353Z,97712.00
2023-04-28T22:19:40.356Z,97712.06
2023-04-28T22:22:09.664Z,97707.81
2023-04-28T22:24:40.616Z,97701.97
2023-04-28T22:27:12.569Z,97708.75
2023-04-28T22:29:41.103Z,97708.75
2023-04-28T22:32:10.797Z,97707.94
2023-04-28T22:34:40.502Z,97699.69
2023-04-28T22:37:09.852Z,97711.63
2023-04-28T22:39:40.449Z,97706.72
2023-04-28T22:42:09.470Z,97711.88
2023-04-28T22:44:40.469Z,97700.81
2023-04-28T22:47:11.057Z,97719.59
2023-04-28T22:49:40.031Z,97705.19
2023-04-28T22:52:09.545Z,97705.00
2023-04-28T22:54:40.096Z,97704.28
2023-04-28T22:57:09.376Z,97706.94
2023-04-28T22:59:38.600Z,97706.31
2023-04-28T23:02:09.065Z,97692.22
2023-04-28T23:04:38.467Z,97705.91
2023-04-28T23:07:08.127Z,97699.50
2023-04-28T23:09:37.559Z,97699.09
2023-04-28T23:12:09.421Z,97688.38
2023-04-28T23:14:38.799Z,97696.41
2023-04-28T23:17:08.403Z,97689.91
2023-04-28T23:19:39.804Z,97685.72
2023-04-28T23:22:09.352Z,97687.63
2023-04-28T23:24:40.233Z,97688.63
2023-04-28T23:27:11.750Z,97691.41
2023-04-28T23:29:40.582Z,97676.84
2023-04-28T23:32:09.685Z,97690.31
2023-04-28T23:34:42.142Z,97675.91
2023-04-28T23:37:11.637Z,97693.44
2023-04-28T23:39:41.364Z,97696.00
2023-04-28T23:42:14.576Z,97688.09
2023-04-28T23:44:44.764Z,97688.78
2023-04-28T23:47:14.302Z,97689.66
2023-04-28T23:49:45.933Z,97686.22
2023-04-28T23:52:22.532Z,97687.78
2023-04-28T23:54:55.820Z,97695.44
2023-04-28T23:57:27.338Z,97691.31
2023-04-28T23:59:56.285Z,97680.25
